createdAt,value
2019-04-22T00:01:40.134Z,37.00
2019-04-22T00:06:12.954Z,34.87
2019-04-22T00:10:26.043Z,33.90
2019-04-22T00:14:28.445Z,33.67
2019-04-22T00:19:06.175Z,36.20
2019-04-22T00:22:51.854Z,34.30
2019-04-22T00:27:05.199Z,38.33
2019-04-22T00:31:14.537Z,42.13
2019-04-22T00:35:23.807Z,34.53
2019-04-22T00:39:44.762Z,33.70
2019-04-22T00:43:49.251Z,36.97
2019-04-22T00:48:01.052Z,36.13
2019-04-22T00:52:12.436Z,36.87
2019-04-22T00:56:20.165Z,36.43
2019-04-22T01:00:40.570Z,36.63
2019-04-22T01:04:48.915Z,35.87
2019-04-22T01:08:58.933Z,36.47
2019-04-22T01:13:04.839Z,39.97
2019-04-22T01:17:11.587Z,40.53
2019-04-22T01:21:36.802Z,46.40
2019-04-22T01:25:37.518Z,46.77
2019-04-22T01:29:44.040Z,37.67
2019-04-22T01:33:45.781Z,42.60
2019-04-22T01:38:04.167Z,41.13
2019-04-22T01:42:24.464Z,43.20
2019-04-22T01:46:39.291Z,44.93
2019-04-22T01:50:46.194Z,47.03
2019-04-22T01:54:55.630Z,43.57
2019-04-22T01:58:59.318Z,49.50
2019-04-22T02:03:17.758Z,48.53
2019-04-22T02:07:23.539Z,51.63
2019-04-22T02:11:39.017Z,55.60
2019-04-22T02:15:47.417Z,53.07
2019-04-22T02:19:57.573Z,46.63
2019-04-22T02:24:02.127Z,49.60
2019-04-22T02:28:25.698Z,50.30
2019-04-22T02:45:18.465Z,48.47
2019-04-22T02:49:23.090Z,56.70
2019-04-22T02:53:46.506Z,49.73
2019-04-22T02:57:35.287Z,56.63
2019-04-22T03:01:41.137Z,59.53
2019-04-22T03:06:07.721Z,52.60
2019-04-22T03:22:34.349Z,50.50
2019-04-22T03:26:49.044Z,52.73
2019-04-22T03:31:31.713Z,58.23
2019-04-22T03:43:42.534Z,49.13
2019-04-22T03:47:52.908Z,56.87
2019-04-22T03:52:08.488Z,55.50
2019-04-22T03:56:28.638Z,51.73
2019-04-22T04:12:56.679Z,55.30
2019-04-22T04:17:02.050Z,50.67
2019-04-22T04:21:22.775Z,56.97
2019-04-22T04:29:51.070Z,63.63
2019-04-22T04:33:54.584Z,61.27
2019-04-22T04:37:52.474Z,56.43
2019-04-22T04:46:16.076Z,53.00
2019-04-22T04:50:20.520Z,59.00
2019-04-22T04:58:56.355Z,55.63
2019-04-22T05:02:53.127Z,51.63
2019-04-22T05:07:08.677Z,50.63
2019-04-22T05:11:13.943Z,58.50
2019-04-22T05:19:33.243Z,61.60
2019-04-22T05:27:52.133Z,61.10
2019-04-22T05:31:56.895Z,53.50
2019-04-22T05:36:07.151Z,65.00
2019-04-22T05:44:32.595Z,59.10
2019-04-22T05:48:52.217Z,54.47
2019-04-22T05:52:51.112Z,66.43
2019-04-22T05:57:02.321Z,55.93
2019-04-22T06:05:24.911Z,55.73
2019-04-22T06:09:32.368Z,58.87
2019-04-22T06:13:41.798Z,55.33
2019-04-22T06:18:04.532Z,61.63
2019-04-22T06:22:15.474Z,62.27
2019-04-22T06:30:54.599Z,46.10
2019-04-22T06:34:42.089Z,48.67
2019-04-22T06:38:55.895Z,52.63
2019-04-22T06:47:14.794Z,45.50
2019-04-22T06:51:27.054Z,49.10
2019-04-22T06:59:49.650Z,50.00
2019-04-22T07:08:16.052Z,54.10
2019-04-22T07:12:23.511Z,48.97
2019-04-22T07:16:31.519Z,49.90
2019-04-22T07:20:36.793Z,51.00
2019-04-22T07:28:56.365Z,48.40
2019-04-22T07:33:28.401Z,38.03
2019-04-22T07:37:27.996Z,40.47
2019-04-22T07:41:34.613Z,35.77
2019-04-22T07:45:44.287Z,41.17
2019-04-22T07:49:50.894Z,38.93
2019-04-22T07:54:03.147Z,36.80
2019-04-22T07:58:11.736Z,31.65
2019-04-22T08:02:26.134Z,35.33
2019-04-22T08:06:34.641Z,33.57
2019-04-22T08:10:45.514Z,29.40
2019-04-22T08:14:53.733Z,29.00
2019-04-22T08:19:03.131Z,30.40
2019-04-22T08:27:22.538Z,35.43
2019-04-22T08:31:35.569Z,25.13
2019-04-22T08:36:03.288Z,26.90
2019-04-22T08:40:03.579Z,27.20
2019-04-22T08:44:18.630Z,34.03
2019-04-22T08:48:16.458Z,28.57
2019-04-22T08:52:31.816Z,20.37
2019-04-22T09:00:49.926Z,20.40
2019-04-22T09:04:56.551Z,21.87
2019-04-22T09:09:07.156Z,18.97
2019-04-22T09:13:13.895Z,19.37
2019-04-22T09:17:28.118Z,28.27
2019-04-22T09:21:41.567Z,24.90
2019-04-22T09:25:50.015Z,18.75
2019-04-22T09:29:59.647Z,17.50
2019-04-22T09:34:06.495Z,21.07
2019-04-22T09:42:31.915Z,15.50
2019-04-22T09:46:45.477Z,12.37
2019-04-22T09:50:47.987Z,11.80
2019-04-22T09:55:07.580Z,14.23
2019-04-22T09:59:08.821Z,11.80
2019-04-22T10:03:20.554Z,16.43
2019-04-22T10:07:45.686Z,10.47
2019-04-22T10:15:58.447Z,11.13
2019-04-22T10:20:02.047Z,11.75
2019-04-22T10:24:09.503Z,10.87
2019-04-22T10:28:26.981Z,9.30
2019-04-22T10:32:29.206Z,8.73
2019-04-22T10:36:17.497Z,8.60
2019-04-22T10:40:28.225Z,9.13
2019-04-22T10:44:37.366Z,10.03
2019-04-22T10:48:46.230Z,8.00
2019-04-22T10:52:55.356Z,10.03
2019-04-22T10:57:03.884Z,9.70
2019-04-22T11:01:13.669Z,8.30
2019-04-22T11:05:22.265Z,7.33
2019-04-22T11:09:31.077Z,8.60
2019-04-22T11:13:39.947Z,7.60
2019-04-22T11:17:49.509Z,6.90
2019-04-22T11:22:07.832Z,7.93
2019-04-22T11:26:10.010Z,8.50
2019-04-22T11:30:23.693Z,7.63
2019-04-22T11:34:30.956Z,6.80
2019-04-22T11:38:48.655Z,9.23
2019-04-22T11:42:50.293Z,10.00
2019-04-22T11:46:59.193Z,8.00
2019-04-22T11:51:07.792Z,7.47
2019-04-22T11:55:17.006Z,9.33
2019-04-22T11:59:26.825Z,7.20
2019-04-22T12:03:35.817Z,6.90
2019-04-22T12:07:44.690Z,9.50
2019-04-22T12:11:53.882Z,8.03
2019-04-22T12:16:03.291Z,7.73
2019-04-22T12:20:14.195Z,7.10
2019-04-22T12:24:23.541Z,7.60
2019-04-22T12:28:33.083Z,7.87
2019-04-22T12:32:41.627Z,8.30
2019-04-22T12:36:51.040Z,9.00
2019-04-22T12:41:04.275Z,6.37
2019-04-22T12:45:12.157Z,6.77
2019-04-22T12:49:20.729Z,6.30
2019-04-22T12:53:29.927Z,9.67
2019-04-22T12:57:39.031Z,7.73
2019-04-22T13:01:48.826Z,6.47
2019-04-22T13:05:57.550Z,6.63
2019-04-22T13:10:11.016Z,9.63
2019-04-22T13:14:21.011Z,10.60
2019-04-22T13:18:38.095Z,8.60
2019-04-22T13:22:40.936Z,8.43
2019-04-22T13:26:50.710Z,11.77
2019-04-22T13:31:01.764Z,15.57
2019-04-22T13:35:10.914Z,9.03
2019-04-22T13:39:20.801Z,8.73
2019-04-22T13:43:29.379Z,11.63
2019-04-22T13:48:00.421Z,10.20
2019-04-22T13:52:20.652Z,7.60
2019-04-22T13:56:18.830Z,8.33
2019-04-22T14:00:18.299Z,8.50
2019-04-22T14:04:32.653Z,7.07
2019-04-22T14:08:43.022Z,8.33
2019-04-22T14:12:52.900Z,6.70
2019-04-22T14:17:02.820Z,8.77
2019-04-22T14:21:12.526Z,8.90
2019-04-22T14:25:21.102Z,8.17
2019-04-22T14:29:29.859Z,13.50
2019-04-22T14:33:40.365Z,7.30
2019-04-22T14:37:50.253Z,8.83
2019-04-22T14:42:18.983Z,6.93
2019-04-22T14:46:33.490Z,11.70
2019-04-22T14:50:41.901Z,6.93
2019-04-22T14:54:43.522Z,6.83
2019-04-22T14:58:40.769Z,8.93
2019-04-22T15:02:49.896Z,7.53
2019-04-22T15:06:59.064Z,14.77
2019-04-22T15:11:08.758Z,6.90
2019-04-22T15:15:40.404Z,7.20
2019-04-22T15:19:56.088Z,10.23
2019-04-22T15:24:25.091Z,6.87
2019-04-22T15:28:35.404Z,6.83
2019-04-22T15:32:45.480Z,6.67
2019-04-22T15:36:54.181Z,5.70
2019-04-22T15:41:03.009Z,7.77
2019-04-22T15:45:14.354Z,6.03
2019-04-22T15:49:22.400Z,15.17
2019-04-22T15:53:31.715Z,7.33
2019-04-22T15:57:41.768Z,8.73
2019-04-22T16:01:50.638Z,5.60
2019-04-22T16:05:59.768Z,5.37
2019-04-22T16:10:10.117Z,5.40
2019-04-22T16:14:27.476Z,7.20
2019-04-22T16:18:30.519Z,6.97
2019-04-22T16:22:57.203Z,7.17
2019-04-22T16:27:10.425Z,16.03
2019-04-22T16:31:19.539Z,8.33
2019-04-22T16:35:28.762Z,8.97
2019-04-22T16:39:38.484Z,10.43
2019-04-22T16:43:48.743Z,6.03
2019-04-22T16:47:57.992Z,4.27
2019-04-22T16:52:07.892Z,5.77
2019-04-22T16:56:20.499Z,5.20
2019-04-22T17:00:34.420Z,6.20
2019-04-22T17:04:44.959Z,4.47
2019-04-22T17:08:55.079Z,6.03
2019-04-22T17:13:09.675Z,6.07
2019-04-22T17:17:14.895Z,8.93
2019-04-22T17:21:23.703Z,5.33
2019-04-22T17:25:32.232Z,4.67
2019-04-22T17:29:41.032Z,5.83
2019-04-22T17:33:50.789Z,8.80
2019-04-22T17:38:08.951Z,5.83
2019-04-22T17:42:30.970Z,7.17
2019-04-22T17:46:48.682Z,10.10
2019-04-22T17:51:19.114Z,8.00
2019-04-22T17:55:11.440Z,9.47
2019-04-22T17:59:27.958Z,6.17
2019-04-22T18:03:25.803Z,9.47
2019-04-22T18:07:52.343Z,5.83
2019-04-22T18:12:04.905Z,7.77
2019-04-22T18:16:08.489Z,6.27
2019-04-22T18:20:13.139Z,6.30
2019-04-22T18:24:15.759Z,6.53
2019-04-22T18:28:43.561Z,9.57
2019-04-22T18:32:45.104Z,9.23
2019-04-22T18:36:55.188Z,11.10
2019-04-22T18:41:04.962Z,5.50
2019-04-22T18:45:37.533Z,6.50
2019-04-22T18:49:30.645Z,10.43
2019-04-22T18:54:00.448Z,8.47
2019-04-22T18:58:06.691Z,7.03
2019-04-22T19:02:05.529Z,7.10
2019-04-22T19:06:42.201Z,7.78
2019-04-22T19:10:55.126Z,8.47
2019-04-22T19:14:59.058Z,6.93
2019-04-22T19:19:21.245Z,10.93
2019-04-22T19:23:19.363Z,6.70
2019-04-22T19:27:20.162Z,8.80
2019-04-22T19:31:34.303Z,9.13
2019-04-22T19:35:40.112Z,10.30
2019-04-22T19:40:03.538Z,6.20
2019-04-22T19:44:04.156Z,12.03
2019-04-22T19:48:25.391Z,11.60
2019-04-22T19:52:29.042Z,6.77
2019-04-22T19:56:29.624Z,10.43
2019-04-22T20:00:45.826Z,10.40
2019-04-22T20:05:14.090Z,11.70
2019-04-22T20:09:23.799Z,9.23
2019-04-22T20:13:38.578Z,12.30
2019-04-22T20:17:44.102Z,9.00
2019-04-22T20:21:54.708Z,9.30
2019-04-22T20:25:51.098Z,8.83
2019-04-22T20:30:14.412Z,7.70
2019-04-22T20:34:26.748Z,9.83
2019-04-22T20:38:32.632Z,8.73
2019-04-22T20:42:48.666Z,7.50
2019-04-22T20:46:52.147Z,8.23
2019-04-22T20:51:07.585Z,9.00
2019-04-22T20:55:09.304Z,6.03
2019-04-22T20:59:23.750Z,9.57
2019-04-22T21:03:22.367Z,8.10
2019-04-22T21:07:37.566Z,11.80
2019-04-22T21:11:48.382Z,6.90
2019-04-22T21:16:06.051Z,5.40
2019-04-22T21:20:17.335Z,9.10
2019-04-22T21:24:23.735Z,6.53
2019-04-22T21:28:33.047Z,8.60
2019-04-22T21:32:39.231Z,11.38
2019-04-22T21:37:06.118Z,6.37
2019-04-22T21:41:08.430Z,7.43
2019-04-22T21:45:07.370Z,7.30
2019-04-22T21:49:25.002Z,8.03
2019-04-22T21:53:46.334Z,9.10
2019-04-22T21:58:06.902Z,8.80
2019-04-22T22:02:16.471Z,10.13
2019-04-22T22:06:15.107Z,10.50
2019-04-22T22:10:41.850Z,8.60
2019-04-22T22:14:46.086Z,11.87
2019-04-22T22:19:02.272Z,7.93
2019-04-22T22:23:22.260Z,11.20
2019-04-22T22:27:28.198Z,6.40
2019-04-22T22:31:44.506Z,4.50
2019-04-22T22:35:40.491Z,6.43
2019-04-22T22:39:44.230Z,5.60
2019-04-22T22:43:48.638Z,10.70
2019-04-22T22:48:24.154Z,6.53
2019-04-22T22:52:45.060Z,9.93
2019-04-22T22:56:44.956Z,10.03
2019-04-22T23:00:49.309Z,11.10
2019-04-22T23:04:57.445Z,9.10
2019-04-22T23:09:09.817Z,9.33
2019-04-22T23:13:22.086Z,7.73
2019-04-22T23:17:11.908Z,8.17
2019-04-22T23:21:26.326Z,9.77
2019-04-22T23:25:56.686Z,7.33
2019-04-22T23:29:53.126Z,7.17
2019-04-22T23:34:06.187Z,5.08
2019-04-22T23:38:23.143Z,7.13
2019-04-22T23:42:41.179Z,6.57
2019-04-22T23:46:43.588Z,8.80
2019-04-22T23:50:55.651Z,6.70
2019-04-22T23:55:08.867Z,8.83
2019-04-22T23:59:42.157Z,13.30
